sensor_id;sensor_type;location;lat;lon;timestamp;pressure;altitude;pressure_sealevel;temperature;humidity
42603;BME280;28233;55.748;48.752;2022-11-11T00:01:06;99596.25;;;6.74;100.00
42603;BME280;28233;55.748;48.752;2022-11-11T00:03:10;99604.44;;;6.74;100.00
42603;BME280;28233;55.748;48.752;2022-11-11T00:05:12;99609.63;;;6.75;100.00
42603;BME280;28233;55.748;48.752;2022-11-11T00:07:15;99614.78;;;6.77;100.00
42603;BME280;28233;55.748;48.752;2022-11-11T00:09:18;99603.03;;;6.76;100.00
42603;BME280;28233;55.748;48.752;2022-11-11T00:11:21;99611.56;;;6.75;100.00
42603;BME280;28233;55.748;48.752;2022-11-11T00:13:23;99614.28;;;6.75;100.00
42603;BME280;28233;55.748;48.752;2022-11-11T00:15:27;99613.16;;;6.76;100.00
42603;BME280;28233;55.748;48.752;2022-11-11T00:17:31;99598.25;;;6.68;100.00
42603;BME280;28233;55.748;48.752;2022-11-11T00:19:53;99598.78;;;6.70;100.00
42603;BME280;28233;55.748;48.752;2022-11-11T00:22:21;99612.94;;;6.72;100.00
42603;BME280;28233;55.748;48.752;2022-11-11T00:24:43;99605.63;;;6.68;100.00
42603;BME280;28233;55.748;48.752;2022-11-11T00:27:06;99580.91;;;6.59;100.00
42603;BME280;28233;55.748;48.752;2022-11-11T00:29:10;99603.94;;;6.72;100.00
42603;BME280;28233;55.748;48.752;2022-11-11T00:31:13;99601.72;;;6.74;100.00
42603;BME280;28233;55.748;48.752;2022-11-11T00:33:16;99602.84;;;6.73;100.00
42603;BME280;28233;55.748;48.752;2022-11-11T00:35:19;99589.47;;;6.71;100.00
42603;BME280;28233;55.748;48.752;2022-11-11T00:37:42;99597.38;;;6.73;100.00
42603;BME280;28233;55.748;48.752;2022-11-11T00:39:45;99592.72;;;6.73;100.00
42603;BME280;28233;55.748;48.752;2022-11-11T00:41:47;99587.25;;;6.73;100.00
42603;BME280;28233;55.748;48.752;2022-11-11T00:43:50;99591.59;;;6.74;100.00
42603;BME280;28233;55.748;48.752;2022-11-11T00:45:53;99595.47;;;6.73;100.00
42603;BME280;28233;55.748;48.752;2022-11-11T00:48:16;99590.50;;;6.75;100.00
42603;BME280;28233;55.748;48.752;2022-11-11T00:50:37;99580.41;;;6.76;100.00
42603;BME280;28233;55.748;48.752;2022-11-11T00:52:59;99590.50;;;6.75;100.00
42603;BME280;28233;55.748;48.752;2022-11-11T00:55:02;99591.31;;;6.76;100.00
42603;BME280;28233;55.748;48.752;2022-11-11T00:57:05;99585.84;;;6.76;100.00
42603;BME280;28233;55.748;48.752;2022-11-11T00:59:08;99595.66;;;6.77;100.00
42603;BME280;28233;55.748;48.752;2022-11-11T01:01:11;99590.19;;;6.77;99.94
42603;BME280;28233;55.748;48.752;2022-11-11T01:03:14;99593.25;;;6.75;99.85
42603;BME280;28233;55.748;48.752;2022-11-11T01:05:16;99591.31;;;6.76;100.00
42603;BME280;28233;55.748;48.752;2022-11-11T01:07:19;99585.34;;;6.74;100.00
42603;BME280;28233;55.748;48.752;2022-11-11T01:09:25;99588.78;;;6.80;100.00
42603;BME280;28233;55.748;48.752;2022-11-11T01:11:27;99592.06;;;6.82;99.82
42603;BME280;28233;55.748;48.752;2022-11-11T01:13:32;99591.25;;;6.81;99.70
42603;BME280;28233;55.748;48.752;2022-11-11T01:15:34;99586.59;;;6.82;99.38
42603;BME280;28233;55.748;48.752;2022-11-11T01:17:37;99590.97;;;6.83;99.57
42603;BME280;28233;55.748;48.752;2022-11-11T01:19:40;99579.22;;;6.82;99.52
42603;BME280;28233;55.748;48.752;2022-11-11T01:21:42;99577.59;;;6.81;99.70
42603;BME280;28233;55.748;48.752;2022-11-11T01:23:47;99587.72;;;6.81;99.20
42603;BME280;28233;55.748;48.752;2022-11-11T01:25:51;99574.56;;;6.83;99.19
42603;BME280;28233;55.748;48.752;2022-11-11T01:27:54;99590.44;;;6.81;99.28
42603;BME280;28233;55.748;48.752;2022-11-11T01:29:56;99598.63;;;6.81;99.27
42603;BME280;28233;55.748;48.752;2022-11-11T01:31:59;99601.06;;;6.82;99.18
42603;BME280;28233;55.748;48.752;2022-11-11T01:34:02;99589.56;;;6.85;99.28
42603;BME280;28233;55.748;48.752;2022-11-11T01:36:24;99589.03;;;6.83;99.03
42603;BME280;28233;55.748;48.752;2022-11-11T01:38:28;99594.78;;;6.82;99.10
42603;BME280;28233;55.748;48.752;2022-11-11T01:40:30;99588.31;;;6.77;98.97
42603;BME280;28233;55.748;48.752;2022-11-11T01:42:50;99581.44;;;6.80;98.87
42603;BME280;28233;55.748;48.752;2022-11-11T01:44:53;99579.50;;;6.81;99.00
42603;BME280;28233;55.748;48.752;2022-11-11T01:47:01;99578.47;;;6.76;98.88
42603;BME280;28233;55.748;48.752;2022-11-11T01:51:39;99566.94;;;6.80;98.97
42603;BME280;28233;55.748;48.752;2022-11-11T01:53:43;99589.91;;;6.78;98.99
42603;BME280;28233;55.748;48.752;2022-11-11T01:55:47;99589.91;;;6.78;98.84
42603;BME280;28233;55.748;48.752;2022-11-11T01:57:52;99584.44;;;6.78;98.97
42603;BME280;28233;55.748;48.752;2022-11-11T02:00:07;99580.41;;;6.76;99.23
42603;BME280;28233;55.748;48.752;2022-11-11T02:02:24;99586.75;;;6.71;99.19
42603;BME280;28233;55.748;48.752;2022-11-11T02:04:29;99576.09;;;6.70;99.32
42603;BME280;28233;55.748;48.752;2022-11-11T02:06:53;99578.84;;;6.70;99.40
42603;BME280;28233;55.748;48.752;2022-11-11T02:08:56;99582.69;;;6.69;99.02
42603;BME280;28233;55.748;48.752;2022-11-11T02:11:09;99574.25;;;6.65;99.26
42603;BME280;28233;55.748;48.752;2022-11-11T02:13:14;99576.50;;;6.63;99.57
42603;BME280;28233;55.748;48.752;2022-11-11T02:15:36;99574.34;;;6.60;99.43
42603;BME280;28233;55.748;48.752;2022-11-11T02:17:39;99574.84;;;6.62;99.35
42603;BME280;28233;55.748;48.752;2022-11-11T02:19:53;99574.84;;;6.62;99.71
42603;BME280;28233;55.748;48.752;2022-11-11T02:21:59;99563.94;;;6.62;99.62
42603;BME280;28233;55.748;48.752;2022-11-11T02:24:03;99574.03;;;6.62;99.85
42603;BME280;28233;55.748;48.752;2022-11-11T02:26:08;99568.59;;;6.62;99.88
42603;BME280;28233;55.748;48.752;2022-11-11T02:28:13;99569.69;;;6.61;100.00
42603;BME280;28233;55.748;48.752;2022-11-11T02:30:18;99568.88;;;6.60;100.00
42603;BME280;28233;55.748;48.752;2022-11-11T02:32:21;99572.72;;;6.59;99.85
42603;BME280;28233;55.748;48.752;2022-11-11T02:34:32;99572.19;;;6.57;100.00
42603;BME280;28233;55.748;48.752;2022-11-11T02:36:36;99570.88;;;6.54;99.82
42603;BME280;28233;55.748;48.752;2022-11-11T02:38:40;99565.09;;;6.56;100.00
42603;BME280;28233;55.748;48.752;2022-11-11T02:40:44;99570.28;;;6.57;100.00
42603;BME280;28233;55.748;48.752;2022-11-11T02:43:07;99575.53;;;6.54;100.00
42603;BME280;28233;55.748;48.752;2022-11-11T02:45:10;99574.47;;;6.50;100.00
42603;BME280;28233;55.748;48.752;2022-11-11T02:47:13;99568.72;;;6.51;100.00
42603;BME280;28233;55.748;48.752;2022-11-11T02:49:15;99560.53;;;6.51;100.00
42603;BME280;28233;55.748;48.752;2022-11-11T02:51:18;99560.81;;;6.50;100.00
42603;BME280;28233;55.748;48.752;2022-11-11T02:53:21;99574.56;;;6.45;100.00
42603;BME280;28233;55.748;48.752;2022-11-11T02:55:25;99569.81;;;6.50;100.00
42603;BME280;28233;55.748;48.752;2022-11-11T02:57:27;99573.34;;;6.51;100.00
42603;BME280;28233;55.748;48.752;2022-11-11T02:59:30;99587.53;;;6.53;100.00
42603;BME280;28233;55.748;48.752;2022-11-11T03:01:33;99582.38;;;6.51;100.00
42603;BME280;28233;55.748;48.752;2022-11-11T03:03:36;99570.63;;;6.51;100.00
42603;BME280;28233;55.748;48.752;2022-11-11T03:05:39;99576.94;;;6.51;100.00
42603;BME280;28233;55.748;48.752;2022-11-11T03:07:42;99575.00;;;6.52;100.00
42603;BME280;28233;55.748;48.752;2022-11-11T03:09:45;99568.22;;;6.49;100.00
42603;BME280;28233;55.748;48.752;2022-11-11T03:11:48;99579.94;;;6.50;100.00
42603;BME280;28233;55.748;48.752;2022-11-11T03:13:51;99587.00;;;6.51;100.00
42603;BME280;28233;55.748;48.752;2022-11-11T03:15:54;99563.56;;;6.50;100.00
42603;BME280;28233;55.748;48.752;2022-11-11T03:17:57;99574.75;;;6.48;100.00
42603;BME280;28233;55.748;48.752;2022-11-11T03:19:59;99574.47;;;6.50;100.00
42603;BME280;28233;55.748;48.752;2022-11-11T03:22:20;99577.28;;;6.45;100.00
42603;BME280;28233;55.748;48.752;2022-11-11T03:24:43;99578.09;;;6.45;100.00
42603;BME280;28233;55.748;48.752;2022-11-11T03:27:05;99575.63;;;6.44;100.00
42603;BME280;28233;55.748;48.752;2022-11-11T03:29:07;99575.44;;;6.40;100.00
42603;BME280;28233;55.748;48.752;2022-11-11T03:31:10;99576.00;;;6.37;100.00
42603;BME280;28233;55.748;48.752;2022-11-11T03:33:14;99584.19;;;6.37;100.00
42603;BME280;28233;55.748;48.752;2022-11-11T03:35:17;99582.28;;;6.38;100.00
42603;BME280;28233;55.748;48.752;2022-11-11T03:37:20;99588.03;;;6.36;100.00
42603;BME280;28233;55.748;48.752;2022-11-11T03:39:41;99584.78;;;6.34;100.00
42603;BME280;28233;55.748;48.752;2022-11-11T03:41:43;99587.50;;;6.34;100.00
42603;BME280;28233;55.748;48.752;2022-11-11T03:43:46;99602.25;;;6.33;100.00
42603;BME280;28233;55.748;48.752;2022-11-11T03:45:49;99599.53;;;6.33;100.00
42603;BME280;28233;55.748;48.752;2022-11-11T03:47:52;99612.66;;;6.31;100.00
42603;BME280;28233;55.748;48.752;2022-11-11T03:49:56;99605.88;;;6.28;100.00
42603;BME280;28233;55.748;48.752;2022-11-11T03:51:58;99614.31;;;6.27;100.00
42603;BME280;28233;55.748;48.752;2022-11-11T03:54:01;99612.72;;;6.26;100.00
42603;BME280;28233;55.748;48.752;2022-11-11T03:56:04;99598.81;;;6.22;100.00
42603;BME280;28233;55.748;48.752;2022-11-11T03:58:07;99606.50;;;6.20;100.00
42603;BME280;28233;55.748;48.752;2022-11-11T04:00:18;99602.22;;;6.14;100.00
42603;BME280;28233;55.748;48.752;2022-11-11T04:02:21;99607.13;;;6.12;100.00
42603;BME280;28233;55.748;48.752;2022-11-11T04:04:42;99598.72;;;6.08;100.00
42603;BME280;28233;55.748;48.752;2022-11-11T04:07:04;99613.47;;;6.07;100.00
42603;BME280;28233;55.748;48.752;2022-11-11T04:09:25;99608.56;;;6.04;100.00
42603;BME280;28233;55.748;48.752;2022-11-11T04:11:46;99600.16;;;6.01;100.00
42603;BME280;28233;55.748;48.752;2022-11-11T04:13:50;99613.81;;;6.01;100.00
42603;BME280;28233;55.748;48.752;2022-11-11T04:16:11;99613.00;;;6.00;100.00
42603;BME280;28233;55.748;48.752;2022-11-11T04:18:14;99612.19;;;6.00;100.00
42603;BME280;28233;55.748;48.752;2022-11-11T04:20:17;99603.16;;;5.99;100.00
42603;BME280;28233;55.748;48.752;2022-11-11T04:22:41;99613.06;;;5.95;100.00
42603;BME280;28233;55.748;48.752;2022-11-11T04:24:44;99607.28;;;5.97;100.00
42603;BME280;28233;55.748;48.752;2022-11-11T04:27:14;99597.22;;;5.92;100.00
42603;BME280;28233;55.748;48.752;2022-11-11T04:29:17;99600.50;;;5.94;100.00
42603;BME280;28233;55.748;48.752;2022-11-11T04:31:32;99601.59;;;5.93;100.00
42603;BME280;28233;55.748;48.752;2022-11-11T04:33:34;99597.22;;;5.92;100.00
42603;BME280;28233;55.748;48.752;2022-11-11T04:35:37;99596.13;;;5.93;100.00
42603;BME280;28233;55.748;48.752;2022-11-11T04:37:47;99601.59;;;5.93;100.00
42603;BME280;28233;55.748;48.752;2022-11-11T04:40:14;99610.84;;;5.92;100.00
42603;BME280;28233;55.748;48.752;2022-11-11T04:42:35;99603.78;;;5.91;100.00
42603;BME280;28233;55.748;48.752;2022-11-11T04:44:38;99593.69;;;5.91;100.00
42603;BME280;28233;55.748;48.752;2022-11-11T04:47:01;99594.81;;;5.90;100.00
42603;BME280;28233;55.748;48.752;2022-11-11T04:49:03;99610.03;;;5.91;100.00
42603;BME280;28233;55.748;48.752;2022-11-11T04:51:06;99598.34;;;5.91;100.00
42603;BME280;28233;55.748;48.752;2022-11-11T04:53:11;99598.03;;;5.92;100.00
42603;BME280;28233;55.748;48.752;2022-11-11T04:55:15;99590.94;;;5.97;100.00
42603;BME280;28233;55.748;48.752;2022-11-11T04:57:44;99596.69;;;5.95;100.00
42603;BME280;28233;55.748;48.752;2022-11-11T04:59:46;99596.09;;;5.98;100.00
42603;BME280;28233;55.748;48.752;2022-11-11T05:01:49;99603.47;;;5.98;100.00
42603;BME280;28233;55.748;48.752;2022-11-11T05:04:10;99601.56;;;5.98;100.00
42603;BME280;28233;55.748;48.752;2022-11-11T05:06:13;99594.81;;;5.90;100.00
42603;BME280;28233;55.748;48.752;2022-11-11T05:08:37;99604.59;;;5.91;100.00
42603;BME280;28233;55.748;48.752;2022-11-11T05:10:58;99595.59;;;5.91;100.00
42603;BME280;28233;55.748;48.752;2022-11-11T05:13:02;99590.97;;;5.91;100.00
42603;BME280;28233;55.748;48.752;2022-11-11T05:15:25;99597.78;;;5.94;100.00
42603;BME280;28233;55.748;48.752;2022-11-11T05:17:46;99595.84;;;5.95;100.00
42603;BME280;28233;55.748;48.752;2022-11-11T05:20:08;99610.03;;;5.91;100.00
42603;BME280;28233;55.748;48.752;2022-11-11T05:22:41;99605.47;;;5.87;100.00
42603;BME280;28233;55.748;48.752;2022-11-11T05:24:44;99612.78;;;5.91;100.00
42603;BME280;28233;55.748;48.752;2022-11-11T05:27:06;99614.69;;;5.91;100.00
42603;BME280;28233;55.748;48.752;2022-11-11T05:29:08;99603.78;;;5.91;100.00
42603;BME280;28233;55.748;48.752;2022-11-11T05:31:11;99603.22;;;5.94;100.00
42603;BME280;28233;55.748;48.752;2022-11-11T05:33:14;99610.81;;;5.97;100.00
42603;BME280;28233;55.748;48.752;2022-11-11T05:35:17;99616.00;;;5.99;100.00
42603;BME280;28233;55.748;48.752;2022-11-11T05:37:20;99609.16;;;6.01;100.00
42603;BME280;28233;55.748;48.752;2022-11-11T05:39:22;99607.75;;;6.04;100.00
42603;BME280;28233;55.748;48.752;2022-11-11T05:41:25;99602.91;;;6.01;100.00
42603;BME280;28233;55.748;48.752;2022-11-11T05:43:27;99589.78;;;6.03;100.00
42603;BME280;28233;55.748;48.752;2022-11-11T05:45:30;99603.13;;;6.04;100.00
42603;BME280;28233;55.748;48.752;2022-11-11T05:47:33;99590.00;;;6.06;100.00
42603;BME280;28233;55.748;48.752;2022-11-11T05:49:35;99587.00;;;6.08;100.00
42603;BME280;28233;55.748;48.752;2022-11-11T05:51:38;99602.50;;;6.12;100.00
42603;BME280;28233;55.748;48.752;2022-11-11T05:53:41;99589.97;;;6.11;100.00
42603;BME280;28233;55.748;48.752;2022-11-11T05:55:43;99587.53;;;6.10;100.00
42603;BME280;28233;55.748;48.752;2022-11-11T05:57:46;99594.91;;;6.09;100.00
42603;BME280;28233;55.748;48.752;2022-11-11T05:59:49;99595.69;;;6.10;100.00
42603;BME280;28233;55.748;48.752;2022-11-11T06:01:51;99595.69;;;6.10;100.00
42603;BME280;28233;55.748;48.752;2022-11-11T06:03:54;99590.25;;;6.10;100.00
42603;BME280;28233;55.748;48.752;2022-11-11T06:05:57;99597.38;;;6.06;100.00
42603;BME280;28233;55.748;48.752;2022-11-11T06:08:00;99595.69;;;6.10;100.00
42603;BME280;28233;55.748;48.752;2022-11-11T06:10:02;99576.66;;;6.05;100.00
42603;BME280;28233;55.748;48.752;2022-11-11T06:12:23;99596.28;;;6.07;100.00
42603;BME280;28233;55.748;48.752;2022-11-11T06:14:26;99621.13;;;6.05;100.00
42603;BME280;28233;55.748;48.752;2022-11-11T06:16:29;99599.88;;;6.02;100.00
42603;BME280;28233;55.748;48.752;2022-11-11T06:18:31;99595.75;;;6.05;100.00
42603;BME280;28233;55.748;48.752;2022-11-11T06:20:34;99615.66;;;6.05;100.00
42603;BME280;28233;55.748;48.752;2022-11-11T06:22:37;99597.09;;;6.07;100.00
42603;BME280;28233;55.748;48.752;2022-11-11T06:24:58;99599.03;;;6.07;100.00
42603;BME280;28233;55.748;48.752;2022-11-11T06:27:20;99615.38;;;6.07;100.00
42603;BME280;28233;55.748;48.752;2022-11-11T06:29:23;99596.03;;;6.03;100.00
42603;BME280;28233;55.748;48.752;2022-11-11T06:31:26;99609.09;;;6.06;100.00
42603;BME280;28233;55.748;48.752;2022-11-11T06:33:28;99600.63;;;6.08;100.00
42603;BME280;28233;55.748;48.752;2022-11-11T06:35:31;99616.19;;;6.07;100.00
42603;BME280;28233;55.748;48.752;2022-11-11T06:37:35;99602.56;;;6.07;100.00
42603;BME280;28233;55.748;48.752;2022-11-11T06:39:38;99614.28;;;6.08;100.00
42603;BME280;28233;55.748;48.752;2022-11-11T06:41:40;99613.69;;;6.11;100.00
42603;BME280;28233;55.748;48.752;2022-11-11T06:43:43;99611.47;;;6.13;100.00
42603;BME280;28233;55.748;48.752;2022-11-11T06:45:52;99618.59;;;6.09;100.00
42603;BME280;28233;55.748;48.752;2022-11-11T06:47:55;99615.31;;;6.12;100.00
42603;BME280;28233;55.748;48.752;2022-11-11T06:49:57;99604.41;;;6.12;100.00
42603;BME280;28233;55.748;48.752;2022-11-11T06:52:00;99616.66;;;6.14;100.00
42603;BME280;28233;55.748;48.752;2022-11-11T06:54:03;99625.06;;;6.18;100.00
42603;BME280;28233;55.748;48.752;2022-11-11T06:56:06;99615.78;;;6.19;100.00
42603;BME280;28233;55.748;48.752;2022-11-11T06:58:12;99610.84;;;6.21;100.00
42603;BME280;28233;55.748;48.752;2022-11-11T07:00:15;99616.59;;;6.20;100.00
42603;BME280;28233;55.748;48.752;2022-11-11T07:02:18;99616.53;;;6.25;100.00
42603;BME280;28233;55.748;48.752;2022-11-11T07:04:21;99628.78;;;6.27;100.00
42603;BME280;28233;55.748;48.752;2022-11-11T07:06:24;99615.94;;;6.28;100.00
42603;BME280;28233;55.748;48.752;2022-11-11T07:08:26;99623.63;;;6.26;100.00
42603;BME280;28233;55.748;48.752;2022-11-11T07:10:31;99633.44;;;6.27;100.00
42603;BME280;28233;55.748;48.752;2022-11-11T07:12:35;99629.31;;;6.29;100.00
42603;BME280;28233;55.748;48.752;2022-11-11T07:14:37;99627.69;;;6.28;100.00
42603;BME280;28233;55.748;48.752;2022-11-11T07:16:40;99618.66;;;6.28;100.00
42603;BME280;28233;55.748;48.752;2022-11-11T07:18:43;99619.78;;;6.27;100.00
42603;BME280;28233;55.748;48.752;2022-11-11T07:20:45;99624.72;;;6.25;100.00
42603;BME280;28233;55.748;48.752;2022-11-11T07:22:48;99619.56;;;6.23;100.00
42603;BME280;28233;55.748;48.752;2022-11-11T07:24:51;99616.00;;;6.23;100.00
42603;BME280;28233;55.748;48.752;2022-11-11T07:26:53;99622.34;;;6.18;100.00
42603;BME280;28233;55.748;48.752;2022-11-11T07:28:56;99618.44;;;6.24;100.00
42603;BME280;28233;55.748;48.752;2022-11-11T07:30:58;99614.13;;;6.23;100.00
42603;BME280;28233;55.748;48.752;2022-11-11T07:33:01;99618.19;;;6.26;100.00
42603;BME280;28233;55.748;48.752;2022-11-11T07:35:04;99613.00;;;6.24;100.00
42603;BME280;28233;55.748;48.752;2022-11-11T07:37:07;99605.94;;;6.23;100.00
42603;BME280;28233;55.748;48.752;2022-11-11T07:39:09;99614.59;;;6.25;100.00
42603;BME280;28233;55.748;48.752;2022-11-11T07:41:12;99611.66;;;6.22;100.00
42603;BME280;28233;55.748;48.752;2022-11-11T07:43:15;99614.16;;;6.18;100.00
42603;BME280;28233;55.748;48.752;2022-11-11T07:45:17;99613.06;;;6.19;100.00
42603;BME280;28233;55.748;48.752;2022-11-11T07:47:20;99622.34;;;6.18;100.00
42603;BME280;28233;55.748;48.752;2022-11-11T07:49:23;99616.34;;;6.16;100.00
42603;BME280;28233;55.748;48.752;2022-11-11T07:51:25;99606.28;;;6.17;100.00
42603;BME280;28233;55.748;48.752;2022-11-11T07:53:28;99610.91;;;6.16;100.00
42603;BME280;28233;55.748;48.752;2022-11-11T07:55:31;99616.66;;;6.14;100.00
42603;BME280;28233;55.748;48.752;2022-11-11T07:57:33;99606.34;;;6.11;100.00
42603;BME280;28233;55.748;48.752;2022-11-11T07:59:36;99607.66;;;6.14;100.00
42603;BME280;28233;55.748;48.752;2022-11-11T08:01:39;99604.16;;;6.08;100.00
42603;BME280;28233;55.748;48.752;2022-11-11T08:03:42;99613.69;;;6.11;100.00
42603;BME280;28233;55.748;48.752;2022-11-11T08:05:51;99626.25;;;6.12;100.00
42603;BME280;28233;55.748;48.752;2022-11-11T08:07:53;99621.31;;;6.14;100.00
42603;BME280;28233;55.748;48.752;2022-11-11T08:09:56;99609.28;;;6.15;100.00
42603;BME280;28233;55.748;48.752;2022-11-11T08:11:59;99608.47;;;6.14;100.00
42603;BME280;28233;55.748;48.752;2022-11-11T08:14:23;99604.41;;;6.12;100.00
42603;BME280;28233;55.748;48.752;2022-11-11T08:16:26;99598.97;;;6.12;100.00
42603;BME280;28233;55.748;48.752;2022-11-11T08:18:28;99594.31;;;6.12;100.00
42603;BME280;28233;55.748;48.752;2022-11-11T08:20:31;99598.16;;;6.11;100.00
42603;BME280;28233;55.748;48.752;2022-11-11T08:22:37;99594.31;;;6.12;100.00
42603;BME280;28233;55.748;48.752;2022-11-11T08:24:41;99607.13;;;6.12;100.00
42603;BME280;28233;55.748;48.752;2022-11-11T08:27:04;99606.03;;;6.13;100.00
42603;BME280;28233;55.748;48.752;2022-11-11T08:29:07;99603.28;;;6.13;100.00
42603;BME280;28233;55.748;48.752;2022-11-11T08:31:11;99599.16;;;6.16;100.00
42603;BME280;28233;55.748;48.752;2022-11-11T08:33:13;99592.91;;;6.15;100.00
42603;BME280;28233;55.748;48.752;2022-11-11T08:35:36;99586.34;;;6.16;100.00
42603;BME280;28233;55.748;48.752;2022-11-11T08:37:38;99602.50;;;6.12;100.00
42603;BME280;28233;55.748;48.752;2022-11-11T08:39:41;99583.75;;;6.06;100.00
42603;BME280;28233;55.748;48.752;2022-11-11T08:41:44;99599.75;;;6.12;100.00
42603;BME280;28233;55.748;48.752;2022-11-11T08:43:46;99602.22;;;6.14;100.00
42603;BME280;28233;55.748;48.752;2022-11-11T08:45:52;99593.19;;;6.13;100.00
42603;BME280;28233;55.748;48.752;2022-11-11T08:47:55;99589.97;;;6.11;100.00
42603;BME280;28233;55.748;48.752;2022-11-11T08:49:57;99580.72;;;6.07;100.00
42603;BME280;28233;55.748;48.752;2022-11-11T08:52:00;99578.28;;;6.06;100.00
42603;BME280;28233;55.748;48.752;2022-11-11T08:54:03;99580.41;;;6.09;100.00
42603;BME280;28233;55.748;48.752;2022-11-11T08:56:06;99575.28;;;6.07;100.00
42603;BME280;28233;55.748;48.752;2022-11-11T08:58:10;99578.81;;;6.08;100.00
42603;BME280;28233;55.748;48.752;2022-11-11T09:00:20;99581.53;;;6.08;100.00
42603;BME280;28233;55.748;48.752;2022-11-11T09:02:25;99579.34;;;6.10;100.00
42603;BME280;28233;55.748;48.752;2022-11-11T09:04:27;99554.84;;;6.05;100.00
42603;BME280;28233;55.748;48.752;2022-11-11T09:06:46;99577.69;;;6.09;100.00
42603;BME280;28233;55.748;48.752;2022-11-11T09:08:49;99570.88;;;6.11;100.00
42603;BME280;28233;55.748;48.752;2022-11-11T09:10:52;99574.69;;;6.10;99.95
42603;BME280;28233;55.748;48.752;2022-11-11T09:12:57;99577.13;;;6.12;99.78
42603;BME280;28233;55.748;48.752;2022-11-11T09:15:00;99574.34;;;6.17;99.86
42603;BME280;28233;55.748;48.752;2022-11-11T09:17:05;99568.06;;;6.17;99.36
42603;BME280;28233;55.748;48.752;2022-11-11T09:19:08;99569.16;;;6.16;99.25
42603;BME280;28233;55.748;48.752;2022-11-11T09:21:10;99565.88;;;6.19;99.30
42603;BME280;28233;55.748;48.752;2022-11-11T09:23:13;99568.59;;;6.19;98.88
42603;BME280;28233;55.748;48.752;2022-11-11T09:25:16;99579.00;;;6.17;98.65
42603;BME280;28233;55.748;48.752;2022-11-11T09:27:19;99574.94;;;6.14;98.46
42603;BME280;28233;55.748;48.752;2022-11-11T09:29:22;99580.59;;;6.18;98.67
42603;BME280;28233;55.748;48.752;2022-11-11T09:31:24;99574.88;;;6.19;98.30
42603;BME280;28233;55.748;48.752;2022-11-11T09:33:47;99572.94;;;6.20;98.26
42603;BME280;28233;55.748;48.752;2022-11-11T09:35:49;99572.94;;;6.20;98.11
42603;BME280;28233;55.748;48.752;2022-11-11T09:37:59;99567.47;;;6.20;97.68
42603;BME280;28233;55.748;48.752;2022-11-11T09:40:02;99568.59;;;6.19;97.88
42603;BME280;28233;55.748;48.752;2022-11-11T09:44:56;99571.34;;;6.19;97.57
42603;BME280;28233;55.748;48.752;2022-11-11T09:50:07;99565.88;;;6.19;97.71
42603;BME280;28233;55.748;48.752;2022-11-11T09:52:19;99554.44;;;6.17;97.40
42603;BME280;28233;55.748;48.752;2022-11-11T09:56:58;99557.44;;;6.15;97.34
42603;BME280;28233;55.748;48.752;2022-11-11T09:59:08;99563.44;;;6.17;97.48
42603;BME280;28233;55.748;48.752;2022-11-11T10:01:16;99555.31;;;6.12;97.35
42603;BME280;28233;55.748;48.752;2022-11-11T10:03:21;99560.53;;;6.08;97.66
42603;BME280;28233;55.748;48.752;2022-11-11T10:08:31;99551.06;;;6.01;98.23
42603;BME280;28233;55.748;48.752;2022-11-11T10:10:46;99547.81;;;5.99;98.97
42603;BME280;28233;55.748;48.752;2022-11-11T10:12:55;99549.50;;;5.95;98.97
42603;BME280;28233;55.748;48.752;2022-11-11T10:14:58;99553.06;;;5.95;99.25
42603;BME280;28233;55.748;48.752;2022-11-11T10:19:30;99553.06;;;5.95;99.13
42603;BME280;28233;55.748;48.752;2022-11-11T10:21:53;99558.22;;;5.91;99.02
42603;BME280;28233;55.748;48.752;2022-11-11T10:26:52;99553.59;;;5.92;99.19
42603;BME280;28233;55.748;48.752;2022-11-11T10:28:57;99554.38;;;5.92;98.89
42603;BME280;28233;55.748;48.752;2022-11-11T10:31:05;99550.34;;;5.95;99.11
42603;BME280;28233;55.748;48.752;2022-11-11T10:33:17;99544.88;;;5.95;98.67
42603;BME280;28233;55.748;48.752;2022-11-11T10:35:27;99555.41;;;6.02;98.60
42603;BME280;28233;55.748;48.752;2022-11-11T10:37:41;99550.78;;;6.02;98.43
42603;BME280;28233;55.748;48.752;2022-11-11T10:39:57;99546.13;;;6.03;98.04
42603;BME280;28233;55.748;48.752;2022-11-11T10:42:15;99545.56;;;6.06;97.99
42603;BME280;28233;55.748;48.752;2022-11-11T10:44:27;99544.47;;;6.07;97.84
42603;BME280;28233;55.748;48.752;2022-11-11T10:46:36;99556.47;;;6.06;97.60
42603;BME280;28233;55.748;48.752;2022-11-11T10:50:58;99545.56;;;6.06;97.31
42603;BME280;28233;55.748;48.752;2022-11-11T10:55:21;99543.34;;;6.08;97.52
42603;BME280;28233;55.748;48.752;2022-11-11T10:57:42;99542.53;;;6.07;97.07
42603;BME280;28233;55.748;48.752;2022-11-11T10:59:55;99542.81;;;6.06;96.94
42603;BME280;28233;55.748;48.752;2022-11-11T11:02:25;99545.56;;;6.06;96.69
42603;BME280;28233;55.748;48.752;2022-11-11T11:04:45;99543.41;;;6.03;96.70
42603;BME280;28233;55.748;48.752;2022-11-11T11:06:51;99543.41;;;6.03;96.65
42603;BME280;28233;55.748;48.752;2022-11-11T11:11:43;99539.88;;;6.02;96.86
42603;BME280;28233;55.748;48.752;2022-11-11T11:13:51;99548.63;;;5.99;96.86
42603;BME280;28233;55.748;48.752;2022-11-11T11:15:57;99549.97;;;6.02;96.67
42603;BME280;28233;55.748;48.752;2022-11-11T11:18:10;99547.22;;;6.02;96.72
42603;BME280;28233;55.748;48.752;2022-11-11T11:20:18;99544.50;;;6.02;96.84
42603;BME280;28233;55.748;48.752;2022-11-11T11:22:45;99543.47;;;5.98;96.58
42603;BME280;28233;55.748;48.752;2022-11-11T11:24:48;99546.22;;;5.98;96.51
42603;BME280;28233;55.748;48.752;2022-11-11T11:26:57;99538.56;;;6.00;96.55
42603;BME280;28233;55.748;48.752;2022-11-11T11:29:00;99542.09;;;6.00;96.47
42603;BME280;28233;55.748;48.752;2022-11-11T11:31:07;99536.63;;;6.00;95.90
42603;BME280;28233;55.748;48.752;2022-11-11T11:33:11;99541.56;;;5.98;96.04